Christiana, Delaware
Current Conditions -  °F | °C
As of 11:51 AM on Thursday 30 Oct 2014 (Local Time) from KILG Reporting Station
Few Clouds Few Clouds  
Wind Chill: 57°   Ceiling: Unl
Heat Index: 57°   Visibility: 10mi
Dew Point: 42°   Wind: 6mph
Humidity: 57%   Direction: 350°N
Pressure: 30.04"   Gusts: NA
Location:  39.6223°N, 75.7264°W
Report Text: KILG 301551Z 35005KT 10SM FEW035 14/06 A3004 RMK AO2 SLP171 T01390056
Loading
Personal Weather Stations






























Interactive Weather Map
Tropical Storm Tracking
New forecast layout! Learn more

10-Day Weather Forecast

Advertisements
Track Severe Weather on mobile